sensor_id;sensor_type;location;lat;lon;timestamp;P1;durP1;ratioP1;P2;durP2;ratioP2
80675;SDS011;70041;46.088;18.268;2023-07-22T00:00:16;15.85;;;9.38;;
80675;SDS011;70041;46.088;18.268;2023-07-22T00:02:42;16.13;;;9.57;;
80675;SDS011;70041;46.088;18.268;2023-07-22T00:05:07;14.50;;;9.40;;
80675;SDS011;70041;46.088;18.268;2023-07-22T00:07:35;17.92;;;10.15;;
80675;SDS011;70041;46.088;18.268;2023-07-22T00:10:00;16.40;;;10.02;;
80675;SDS011;70041;46.088;18.268;2023-07-22T00:12:26;14.87;;;9.67;;
80675;SDS011;70041;46.088;18.268;2023-07-22T00:14:51;15.70;;;10.17;;
80675;SDS011;70041;46.088;18.268;2023-07-22T00:17:18;15.02;;;10.05;;
80675;SDS011;70041;46.088;18.268;2023-07-22T00:19:44;14.80;;;8.93;;
80675;SDS011;70041;46.088;18.268;2023-07-22T00:22:09;15.87;;;9.27;;
80675;SDS011;70041;46.088;18.268;2023-07-22T00:24:35;15.77;;;9.97;;
80675;SDS011;70041;46.088;18.268;2023-07-22T00:27:00;16.27;;;9.47;;
80675;SDS011;70041;46.088;18.268;2023-07-22T00:29:26;13.80;;;8.73;;
80675;SDS011;70041;46.088;18.268;2023-07-22T00:31:51;13.50;;;9.63;;
80675;SDS011;70041;46.088;18.268;2023-07-22T00:34:16;14.27;;;9.33;;
80675;SDS011;70041;46.088;18.268;2023-07-22T00:36:42;14.03;;;9.37;;
80675;SDS011;70041;46.088;18.268;2023-07-22T00:39:09;12.57;;;8.53;;
80675;SDS011;70041;46.088;18.268;2023-07-22T00:41:34;14.45;;;8.73;;
80675;SDS011;70041;46.088;18.268;2023-07-22T00:44:00;12.57;;;8.87;;
80675;SDS011;70041;46.088;18.268;2023-07-22T00:46:25;17.10;;;10.37;;
80675;SDS011;70041;46.088;18.268;2023-07-22T00:48:50;14.07;;;9.60;;
80675;SDS011;70041;46.088;18.268;2023-07-22T00:51:17;15.05;;;9.60;;
80675;SDS011;70041;46.088;18.268;2023-07-22T00:53:43;14.60;;;8.50;;
80675;SDS011;70041;46.088;18.268;2023-07-22T00:56:08;12.43;;;8.65;;
80675;SDS011;70041;46.088;18.268;2023-07-22T00:58:34;12.67;;;7.80;;
80675;SDS011;70041;46.088;18.268;2023-07-22T01:00:59;13.97;;;8.30;;
80675;SDS011;70041;46.088;18.268;2023-07-22T01:03:24;14.57;;;8.13;;
80675;SDS011;70041;46.088;18.268;2023-07-22T01:05:50;12.43;;;8.38;;
80675;SDS011;70041;46.088;18.268;2023-07-22T01:08:20;14.75;;;8.85;;
80675;SDS011;70041;46.088;18.268;2023-07-22T01:10:45;11.43;;;8.50;;
80675;SDS011;70041;46.088;18.268;2023-07-22T01:13:11;14.85;;;8.85;;
80675;SDS011;70041;46.088;18.268;2023-07-22T01:15:36;15.00;;;8.87;;
80675;SDS011;70041;46.088;18.268;2023-07-22T01:18:02;13.48;;;8.93;;
80675;SDS011;70041;46.088;18.268;2023-07-22T01:20:28;15.87;;;8.57;;
80675;SDS011;70041;46.088;18.268;2023-07-22T01:22:55;13.27;;;8.95;;
80675;SDS011;70041;46.088;18.268;2023-07-22T01:25:21;15.03;;;9.63;;
80675;SDS011;70041;46.088;18.268;2023-07-22T01:27:52;12.65;;;8.57;;
80675;SDS011;70041;46.088;18.268;2023-07-22T01:30:18;15.20;;;9.10;;
80675;SDS011;70041;46.088;18.268;2023-07-22T01:32:44;15.63;;;10.20;;
80675;SDS011;70041;46.088;18.268;2023-07-22T01:35:10;16.02;;;10.00;;
80675;SDS011;70041;46.088;18.268;2023-07-22T01:37:36;14.70;;;9.83;;
80675;SDS011;70041;46.088;18.268;2023-07-22T01:40:01;16.53;;;9.77;;
80675;SDS011;70041;46.088;18.268;2023-07-22T01:42:37;15.57;;;10.25;;
80675;SDS011;70041;46.088;18.268;2023-07-22T01:45:06;15.15;;;10.10;;
80675;SDS011;70041;46.088;18.268;2023-07-22T01:47:35;15.20;;;9.75;;
80675;SDS011;70041;46.088;18.268;2023-07-22T01:50:02;16.58;;;10.13;;
80675;SDS011;70041;46.088;18.268;2023-07-22T01:52:28;15.50;;;9.87;;
80675;SDS011;70041;46.088;18.268;2023-07-22T01:54:53;14.48;;;9.60;;
80675;SDS011;70041;46.088;18.268;2023-07-22T01:57:19;13.63;;;9.90;;
80675;SDS011;70041;46.088;18.268;2023-07-22T01:59:44;15.23;;;9.80;;
80675;SDS011;70041;46.088;18.268;2023-07-22T02:02:09;15.87;;;10.03;;
80675;SDS011;70041;46.088;18.268;2023-07-22T02:04:35;16.53;;;9.57;;
80675;SDS011;70041;46.088;18.268;2023-07-22T02:07:00;14.70;;;10.07;;
80675;SDS011;70041;46.088;18.268;2023-07-22T02:09:26;16.23;;;10.30;;
80675;SDS011;70041;46.088;18.268;2023-07-22T02:11:52;14.63;;;10.03;;
80675;SDS011;70041;46.088;18.268;2023-07-22T02:14:18;16.40;;;10.40;;
80675;SDS011;70041;46.088;18.268;2023-07-22T02:16:44;18.13;;;9.73;;
80675;SDS011;70041;46.088;18.268;2023-07-22T02:19:09;13.73;;;9.07;;
80675;SDS011;70041;46.088;18.268;2023-07-22T02:21:35;16.27;;;9.75;;
80675;SDS011;70041;46.088;18.268;2023-07-22T02:24:01;13.93;;;9.43;;
80675;SDS011;70041;46.088;18.268;2023-07-22T02:26:26;15.73;;;10.73;;
80675;SDS011;70041;46.088;18.268;2023-07-22T02:28:52;16.20;;;10.60;;
80675;SDS011;70041;46.088;18.268;2023-07-22T02:31:17;16.33;;;10.23;;
80675;SDS011;70041;46.088;18.268;2023-07-22T02:33:43;17.07;;;10.60;;
80675;SDS011;70041;46.088;18.268;2023-07-22T02:36:08;16.55;;;10.80;;
80675;SDS011;70041;46.088;18.268;2023-07-22T02:38:34;20.23;;;10.63;;
80675;SDS011;70041;46.088;18.268;2023-07-22T02:41:02;14.63;;;10.43;;
80675;SDS011;70041;46.088;18.268;2023-07-22T02:43:30;16.20;;;9.80;;
80675;SDS011;70041;46.088;18.268;2023-07-22T02:45:56;15.57;;;10.43;;
80675;SDS011;70041;46.088;18.268;2023-07-22T02:48:21;19.20;;;11.43;;
80675;SDS011;70041;46.088;18.268;2023-07-22T02:50:47;15.13;;;10.43;;
80675;SDS011;70041;46.088;18.268;2023-07-22T02:53:12;16.57;;;11.17;;
80675;SDS011;70041;46.088;18.268;2023-07-22T02:55:37;19.47;;;11.00;;
80675;SDS011;70041;46.088;18.268;2023-07-22T02:58:03;14.60;;;10.40;;
80675;SDS011;70041;46.088;18.268;2023-07-22T03:00:28;15.50;;;10.23;;
80675;SDS011;70041;46.088;18.268;2023-07-22T03:02:54;16.20;;;11.00;;
80675;SDS011;70041;46.088;18.268;2023-07-22T03:05:26;15.23;;;10.93;;
80675;SDS011;70041;46.088;18.268;2023-07-22T03:07:53;16.50;;;10.60;;
80675;SDS011;70041;46.088;18.268;2023-07-22T03:10:19;17.67;;;11.70;;
80675;SDS011;70041;46.088;18.268;2023-07-22T03:12:44;17.43;;;10.70;;
80675;SDS011;70041;46.088;18.268;2023-07-22T03:15:10;19.00;;;11.03;;
80675;SDS011;70041;46.088;18.268;2023-07-22T03:17:39;16.67;;;11.43;;
80675;SDS011;70041;46.088;18.268;2023-07-22T03:22:53;20.20;;;11.10;;
80675;SDS011;70041;46.088;18.268;2023-07-22T03:25:19;19.00;;;11.43;;
80675;SDS011;70041;46.088;18.268;2023-07-22T03:27:45;17.17;;;11.23;;
80675;SDS011;70041;46.088;18.268;2023-07-22T03:30:12;17.88;;;11.88;;
80675;SDS011;70041;46.088;18.268;2023-07-22T03:32:41;18.03;;;11.83;;
80675;SDS011;70041;46.088;18.268;2023-07-22T03:35:08;18.77;;;11.65;;
80675;SDS011;70041;46.088;18.268;2023-07-22T03:37:37;16.58;;;11.30;;
80675;SDS011;70041;46.088;18.268;2023-07-22T03:40:03;18.25;;;11.68;;
80675;SDS011;70041;46.088;18.268;2023-07-22T03:42:36;18.55;;;11.82;;
80675;SDS011;70041;46.088;18.268;2023-07-22T03:45:01;16.03;;;11.00;;
80675;SDS011;70041;46.088;18.268;2023-07-22T03:47:27;19.57;;;12.23;;
80675;SDS011;70041;46.088;18.268;2023-07-22T03:49:52;19.05;;;13.07;;
80675;SDS011;70041;46.088;18.268;2023-07-22T03:52:19;16.83;;;11.90;;
80675;SDS011;70041;46.088;18.268;2023-07-22T03:54:44;18.13;;;12.63;;
80675;SDS011;70041;46.088;18.268;2023-07-22T03:57:10;16.07;;;10.90;;
80675;SDS011;70041;46.088;18.268;2023-07-22T03:59:35;17.07;;;11.40;;
80675;SDS011;70041;46.088;18.268;2023-07-22T04:02:01;16.25;;;10.73;;
80675;SDS011;70041;46.088;18.268;2023-07-22T04:04:27;18.13;;;11.60;;
80675;SDS011;70041;46.088;18.268;2023-07-22T04:06:53;16.73;;;10.77;;
80675;SDS011;70041;46.088;18.268;2023-07-22T04:09:19;15.93;;;10.93;;
80675;SDS011;70041;46.088;18.268;2023-07-22T04:11:44;16.10;;;10.47;;
80675;SDS011;70041;46.088;18.268;2023-07-22T04:14:10;17.67;;;11.03;;
80675;SDS011;70041;46.088;18.268;2023-07-22T04:16:37;15.27;;;10.57;;
80675;SDS011;70041;46.088;18.268;2023-07-22T04:19:03;15.55;;;10.20;;
80675;SDS011;70041;46.088;18.268;2023-07-22T04:21:28;16.40;;;10.87;;
80675;SDS011;70041;46.088;18.268;2023-07-22T04:23:54;18.70;;;11.60;;
80675;SDS011;70041;46.088;18.268;2023-07-22T04:26:19;17.00;;;11.67;;
80675;SDS011;70041;46.088;18.268;2023-07-22T04:28:45;16.43;;;10.70;;
80675;SDS011;70041;46.088;18.268;2023-07-22T04:31:11;17.83;;;11.77;;
80675;SDS011;70041;46.088;18.268;2023-07-22T04:33:36;14.53;;;10.70;;
80675;SDS011;70041;46.088;18.268;2023-07-22T04:36:01;14.43;;;10.63;;
80675;SDS011;70041;46.088;18.268;2023-07-22T04:38:27;13.77;;;10.23;;
80675;SDS011;70041;46.088;18.268;2023-07-22T04:40:53;17.08;;;11.27;;
80675;SDS011;70041;46.088;18.268;2023-07-22T04:43:18;14.50;;;9.07;;
80675;SDS011;70041;46.088;18.268;2023-07-22T04:45:44;15.23;;;9.80;;
80675;SDS011;70041;46.088;18.268;2023-07-22T04:48:13;18.73;;;10.23;;
80675;SDS011;70041;46.088;18.268;2023-07-22T04:50:41;14.07;;;10.18;;
80675;SDS011;70041;46.088;18.268;2023-07-22T04:53:09;14.93;;;9.82;;
80675;SDS011;70041;46.088;18.268;2023-07-22T04:55:35;13.97;;;9.07;;
80675;SDS011;70041;46.088;18.268;2023-07-22T04:58:02;16.40;;;10.95;;
80675;SDS011;70041;46.088;18.268;2023-07-22T05:00:27;14.27;;;11.53;;
80675;SDS011;70041;46.088;18.268;2023-07-22T05:02:54;18.10;;;12.80;;
80675;SDS011;70041;46.088;18.268;2023-07-22T05:05:21;15.40;;;11.60;;
80675;SDS011;70041;46.088;18.268;2023-07-22T05:07:47;14.67;;;10.10;;
80675;SDS011;70041;46.088;18.268;2023-07-22T05:10:14;13.82;;;9.88;;
80675;SDS011;70041;46.088;18.268;2023-07-22T05:12:43;18.73;;;10.45;;
80675;SDS011;70041;46.088;18.268;2023-07-22T05:15:15;14.75;;;9.60;;
80675;SDS011;70041;46.088;18.268;2023-07-22T05:17:40;12.13;;;8.30;;
80675;SDS011;70041;46.088;18.268;2023-07-22T05:20:06;14.83;;;8.50;;
80675;SDS011;70041;46.088;18.268;2023-07-22T05:22:35;13.20;;;9.00;;
80675;SDS011;70041;46.088;18.268;2023-07-22T05:25:01;13.70;;;8.68;;
80675;SDS011;70041;46.088;18.268;2023-07-22T05:27:26;16.43;;;8.27;;
80675;SDS011;70041;46.088;18.268;2023-07-22T05:29:52;13.90;;;8.83;;
80675;SDS011;70041;46.088;18.268;2023-07-22T05:32:17;15.20;;;9.07;;
80675;SDS011;70041;46.088;18.268;2023-07-22T05:34:42;13.63;;;8.77;;
80675;SDS011;70041;46.088;18.268;2023-07-22T05:37:08;13.37;;;9.03;;
80675;SDS011;70041;46.088;18.268;2023-07-22T05:39:33;11.47;;;8.40;;
80675;SDS011;70041;46.088;18.268;2023-07-22T05:41:59;16.60;;;8.97;;
80675;SDS011;70041;46.088;18.268;2023-07-22T05:44:24;14.30;;;7.87;;
80675;SDS011;70041;46.088;18.268;2023-07-22T05:46:50;13.15;;;7.32;;
80675;SDS011;70041;46.088;18.268;2023-07-22T05:49:15;12.13;;;7.17;;
80675;SDS011;70041;46.088;18.268;2023-07-22T05:51:40;11.53;;;6.73;;
80675;SDS011;70041;46.088;18.268;2023-07-22T05:54:06;13.23;;;6.73;;
80675;SDS011;70041;46.088;18.268;2023-07-22T05:56:31;10.75;;;6.40;;
80675;SDS011;70041;46.088;18.268;2023-07-22T05:58:57;9.73;;;6.30;;
80675;SDS011;70041;46.088;18.268;2023-07-22T06:01:25;10.90;;;5.80;;
80675;SDS011;70041;46.088;18.268;2023-07-22T06:03:51;10.13;;;5.55;;
80675;SDS011;70041;46.088;18.268;2023-07-22T06:06:17;9.32;;;5.47;;
80675;SDS011;70041;46.088;18.268;2023-07-22T06:08:42;8.70;;;4.87;;
80675;SDS011;70041;46.088;18.268;2023-07-22T06:11:09;8.70;;;4.90;;
80675;SDS011;70041;46.088;18.268;2023-07-22T06:13:35;9.47;;;5.10;;
80675;SDS011;70041;46.088;18.268;2023-07-22T06:16:00;9.57;;;4.93;;
80675;SDS011;70041;46.088;18.268;2023-07-22T06:18:26;8.48;;;5.30;;
80675;SDS011;70041;46.088;18.268;2023-07-22T06:20:51;8.30;;;4.63;;
80675;SDS011;70041;46.088;18.268;2023-07-22T06:23:17;10.97;;;4.93;;
80675;SDS011;70041;46.088;18.268;2023-07-22T06:25:42;8.35;;;4.10;;
80675;SDS011;70041;46.088;18.268;2023-07-22T06:28:08;8.23;;;4.60;;
80675;SDS011;70041;46.088;18.268;2023-07-22T06:30:34;8.90;;;4.28;;
80675;SDS011;70041;46.088;18.268;2023-07-22T06:32:59;9.33;;;4.10;;
80675;SDS011;70041;46.088;18.268;2023-07-22T06:35:25;6.67;;;3.87;;
80675;SDS011;70041;46.088;18.268;2023-07-22T06:37:50;11.23;;;4.33;;
80675;SDS011;70041;46.088;18.268;2023-07-22T06:40:15;7.60;;;4.20;;
80675;SDS011;70041;46.088;18.268;2023-07-22T06:42:42;7.40;;;3.97;;
80675;SDS011;70041;46.088;18.268;2023-07-22T06:45:07;10.85;;;4.13;;
80675;SDS011;70041;46.088;18.268;2023-07-22T06:47:33;6.60;;;3.63;;
80675;SDS011;70041;46.088;18.268;2023-07-22T06:49:59;7.28;;;4.00;;
80675;SDS011;70041;46.088;18.268;2023-07-22T06:52:25;7.03;;;3.17;;
80675;SDS011;70041;46.088;18.268;2023-07-22T06:54:51;8.68;;;3.47;;
80675;SDS011;70041;46.088;18.268;2023-07-22T06:57:16;7.40;;;3.30;;
80675;SDS011;70041;46.088;18.268;2023-07-22T06:59:42;6.10;;;3.10;;
80675;SDS011;70041;46.088;18.268;2023-07-22T07:02:08;6.20;;;3.33;;
80675;SDS011;70041;46.088;18.268;2023-07-22T07:04:33;6.95;;;3.28;;
80675;SDS011;70041;46.088;18.268;2023-07-22T07:06:59;7.13;;;3.17;;
80675;SDS011;70041;46.088;18.268;2023-07-22T07:09:25;8.55;;;3.67;;
80675;SDS011;70041;46.088;18.268;2023-07-22T07:11:50;8.23;;;3.50;;
80675;SDS011;70041;46.088;18.268;2023-07-22T07:14:16;7.45;;;3.30;;
80675;SDS011;70041;46.088;18.268;2023-07-22T07:16:42;7.10;;;3.10;;
80675;SDS011;70041;46.088;18.268;2023-07-22T07:19:08;6.13;;;3.13;;
80675;SDS011;70041;46.088;18.268;2023-07-22T07:21:34;7.23;;;3.10;;
80675;SDS011;70041;46.088;18.268;2023-07-22T07:23:59;6.63;;;3.05;;
80675;SDS011;70041;46.088;18.268;2023-07-22T07:26:25;7.87;;;3.23;;
80675;SDS011;70041;46.088;18.268;2023-07-22T07:28:51;8.93;;;3.20;;
80675;SDS011;70041;46.088;18.268;2023-07-22T07:31:17;7.28;;;3.08;;
80675;SDS011;70041;46.088;18.268;2023-07-22T07:33:42;6.47;;;3.17;;
80675;SDS011;70041;46.088;18.268;2023-07-22T07:36:08;7.07;;;3.30;;
80675;SDS011;70041;46.088;18.268;2023-07-22T07:38:33;8.60;;;3.57;;
80675;SDS011;70041;46.088;18.268;2023-07-22T07:40:59;7.00;;;2.90;;
80675;SDS011;70041;46.088;18.268;2023-07-22T07:43:27;6.43;;;3.15;;
80675;SDS011;70041;46.088;18.268;2023-07-22T07:46:12;7.77;;;2.87;;
80675;SDS011;70041;46.088;18.268;2023-07-22T07:48:49;6.10;;;3.08;;
80675;SDS011;70041;46.088;18.268;2023-07-22T07:51:25;6.85;;;3.08;;
80675;SDS011;70041;46.088;18.268;2023-07-22T07:53:52;8.55;;;3.30;;
80675;SDS011;70041;46.088;18.268;2023-07-22T07:56:18;8.05;;;3.20;;
80675;SDS011;70041;46.088;18.268;2023-07-22T07:58:45;7.27;;;3.13;;
80675;SDS011;70041;46.088;18.268;2023-07-22T08:01:11;9.55;;;3.50;;
80675;SDS011;70041;46.088;18.268;2023-07-22T08:03:37;7.93;;;3.47;;
80675;SDS011;70041;46.088;18.268;2023-07-22T08:06:03;7.03;;;3.08;;
80675;SDS011;70041;46.088;18.268;2023-07-22T08:08:29;7.03;;;3.28;;
80675;SDS011;70041;46.088;18.268;2023-07-22T08:10:58;6.93;;;3.00;;
80675;SDS011;70041;46.088;18.268;2023-07-22T08:13:25;7.68;;;3.25;;
80675;SDS011;70041;46.088;18.268;2023-07-22T08:15:58;8.70;;;4.13;;
80675;SDS011;70041;46.088;18.268;2023-07-22T08:18:26;6.63;;;3.60;;
80675;SDS011;70041;46.088;18.268;2023-07-22T08:20:52;6.90;;;3.53;;
80675;SDS011;70041;46.088;18.268;2023-07-22T08:23:18;7.40;;;3.88;;
80675;SDS011;70041;46.088;18.268;2023-07-22T08:25:44;8.27;;;3.80;;
80675;SDS011;70041;46.088;18.268;2023-07-22T08:28:10;7.37;;;3.57;;
80675;SDS011;70041;46.088;18.268;2023-07-22T08:30:36;7.10;;;3.60;;
80675;SDS011;70041;46.088;18.268;2023-07-22T08:33:01;6.88;;;3.42;;
80675;SDS011;70041;46.088;18.268;2023-07-22T08:35:27;8.40;;;3.57;;
80675;SDS011;70041;46.088;18.268;2023-07-22T08:37:52;8.07;;;3.63;;
80675;SDS011;70041;46.088;18.268;2023-07-22T08:40:19;6.27;;;3.40;;
80675;SDS011;70041;46.088;18.268;2023-07-22T08:42:44;7.57;;;3.50;;
80675;SDS011;70041;46.088;18.268;2023-07-22T08:45:11;7.57;;;3.70;;
80675;SDS011;70041;46.088;18.268;2023-07-22T08:47:46;7.03;;;3.80;;
80675;SDS011;70041;46.088;18.268;2023-07-22T08:50:14;7.38;;;4.10;;
80675;SDS011;70041;46.088;18.268;2023-07-22T08:52:44;7.63;;;3.65;;
80675;SDS011;70041;46.088;18.268;2023-07-22T08:55:11;7.35;;;3.42;;
80675;SDS011;70041;46.088;18.268;2023-07-22T08:57:37;7.75;;;3.97;;
80675;SDS011;70041;46.088;18.268;2023-07-22T09:00:04;8.60;;;3.47;;
80675;SDS011;70041;46.088;18.268;2023-07-22T09:02:37;7.43;;;3.40;;
80675;SDS011;70041;46.088;18.268;2023-07-22T09:05:05;8.07;;;3.60;;
80675;SDS011;70041;46.088;18.268;2023-07-22T09:07:31;7.35;;;3.72;;
80675;SDS011;70041;46.088;18.268;2023-07-22T09:09:56;6.37;;;3.43;;
80675;SDS011;70041;46.088;18.268;2023-07-22T09:12:22;7.57;;;3.90;;
80675;SDS011;70041;46.088;18.268;2023-07-22T09:14:48;8.20;;;3.58;;
80675;SDS011;70041;46.088;18.268;2023-07-22T09:17:14;8.10;;;3.97;;
80675;SDS011;70041;46.088;18.268;2023-07-22T09:19:40;9.33;;;3.80;;
80675;SDS011;70041;46.088;18.268;2023-07-22T09:22:07;7.38;;;3.60;;
80675;SDS011;70041;46.088;18.268;2023-07-22T09:24:32;6.27;;;3.23;;
80675;SDS011;70041;46.088;18.268;2023-07-22T09:26:58;8.88;;;3.70;;
80675;SDS011;70041;46.088;18.268;2023-07-22T09:29:34;7.47;;;3.73;;
80675;SDS011;70041;46.088;18.268;2023-07-22T09:32:00;7.35;;;3.78;;
80675;SDS011;70041;46.088;18.268;2023-07-22T09:34:27;7.03;;;3.78;;
80675;SDS011;70041;46.088;18.268;2023-07-22T09:36:53;6.33;;;3.10;;
80675;SDS011;70041;46.088;18.268;2023-07-22T09:39:25;6.90;;;3.45;;
80675;SDS011;70041;46.088;18.268;2023-07-22T09:41:51;7.97;;;3.15;;
80675;SDS011;70041;46.088;18.268;2023-07-22T09:44:17;7.00;;;2.97;;
80675;SDS011;70041;46.088;18.268;2023-07-22T09:46:46;6.47;;;2.90;;
80675;SDS011;70041;46.088;18.268;2023-07-22T09:49:15;5.88;;;2.70;;
80675;SDS011;70041;46.088;18.268;2023-07-22T09:51:42;7.15;;;2.78;;
80675;SDS011;70041;46.088;18.268;2023-07-22T09:54:09;7.38;;;3.03;;
80675;SDS011;70041;46.088;18.268;2023-07-22T09:56:49;5.87;;;2.57;;
80675;SDS011;70041;46.088;18.268;2023-07-22T09:59:15;6.43;;;2.70;;
80675;SDS011;70041;46.088;18.268;2023-07-22T10:01:43;6.22;;;2.80;;
80675;SDS011;70041;46.088;18.268;2023-07-22T10:04:12;6.50;;;2.78;;
80675;SDS011;70041;46.088;18.268;2023-07-22T10:06:41;6.78;;;2.90;;
80675;SDS011;70041;46.088;18.268;2023-07-22T10:09:07;8.73;;;2.63;;
80675;SDS011;70041;46.088;18.268;2023-07-22T10:11:36;5.80;;;2.35;;
80675;SDS011;70041;46.088;18.268;2023-07-22T10:14:02;6.38;;;2.78;;
80675;SDS011;70041;46.088;18.268;2023-07-22T10:16:29;5.57;;;2.53;;
80675;SDS011;70041;46.088;18.268;2023-07-22T10:18:55;7.40;;;2.45;;
80675;SDS011;70041;46.088;18.268;2023-07-22T10:21:22;5.95;;;2.38;;
80675;SDS011;70041;46.088;18.268;2023-07-22T10:23:49;6.45;;;2.50;;
80675;SDS011;70041;46.088;18.268;2023-07-22T10:26:18;7.10;;;2.80;;
80675;SDS011;70041;46.088;18.268;2023-07-22T10:28:46;6.73;;;2.60;;
80675;SDS011;70041;46.088;18.268;2023-07-22T10:31:15;5.95;;;2.58;;
80675;SDS011;70041;46.088;18.268;2023-07-22T10:33:45;6.93;;;2.72;;
80675;SDS011;70041;46.088;18.268;2023-07-22T10:36:14;6.45;;;2.58;;
80675;SDS011;70041;46.088;18.268;2023-07-22T10:38:43;5.68;;;2.45;;
80675;SDS011;70041;46.088;18.268;2023-07-22T10:41:13;6.23;;;2.77;;
80675;SDS011;70041;46.088;18.268;2023-07-22T10:43:41;6.88;;;2.60;;
80675;SDS011;70041;46.088;18.268;2023-07-22T10:46:11;8.07;;;3.03;;
80675;SDS011;70041;46.088;18.268;2023-07-22T10:48:38;6.45;;;2.80;;
80675;SDS011;70041;46.088;18.268;2023-07-22T10:51:10;7.27;;;2.73;;
80675;SDS011;70041;46.088;18.268;2023-07-22T10:56:35;5.50;;;2.35;;
80675;SDS011;70041;46.088;18.268;2023-07-22T10:59:00;6.20;;;2.50;;
80675;SDS011;70041;46.088;18.268;2023-07-22T11:04:06;5.93;;;2.47;;
80675;SDS011;70041;46.088;18.268;2023-07-22T11:11:58;5.70;;;2.45;;
80675;SDS011;70041;46.088;18.268;2023-07-22T11:14:28;10.47;;;2.70;;
80675;SDS011;70041;46.088;18.268;2023-07-22T11:16:58;6.45;;;2.60;;
80675;SDS011;70041;46.088;18.268;2023-07-22T11:19:26;8.02;;;2.75;;
80675;SDS011;70041;46.088;18.268;2023-07-22T11:21:52;6.10;;;2.40;;
80675;SDS011;70041;46.088;18.268;2023-07-22T11:24:20;5.90;;;2.67;;
80675;SDS011;70041;46.088;18.268;2023-07-22T11:26:47;5.50;;;2.50;;
80675;SDS011;70041;46.088;18.268;2023-07-22T11:29:13;5.90;;;2.40;;
80675;SDS011;70041;46.088;18.268;2023-07-22T11:31:46;7.07;;;2.60;;
80675;SDS011;70041;46.088;18.268;2023-07-22T11:34:14;8.23;;;2.70;;
80675;SDS011;70041;46.088;18.268;2023-07-22T11:36:41;6.90;;;2.60;;
80675;SDS011;70041;46.088;18.268;2023-07-22T11:39:11;5.80;;;2.30;;
80675;SDS011;70041;46.088;18.268;2023-07-22T11:41:38;6.53;;;2.42;;
80675;SDS011;70041;46.088;18.268;2023-07-22T11:44:06;5.40;;;2.30;;
80675;SDS011;70041;46.088;18.268;2023-07-22T11:46:35;7.80;;;2.90;;
80675;SDS011;70041;46.088;18.268;2023-07-22T11:49:02;8.48;;;2.67;;
80675;SDS011;70041;46.088;18.268;2023-07-22T11:51:28;5.85;;;2.35;;
80675;SDS011;70041;46.088;18.268;2023-07-22T11:53:54;6.85;;;2.63;;
80675;SDS011;70041;46.088;18.268;2023-07-22T11:56:21;6.95;;;2.70;;
80675;SDS011;70041;46.088;18.268;2023-07-22T11:58:48;6.33;;;2.60;;
80675;SDS011;70041;46.088;18.268;2023-07-22T12:01:15;7.22;;;2.28;;
80675;SDS011;70041;46.088;18.268;2023-07-22T12:03:41;7.32;;;2.80;;
80675;SDS011;70041;46.088;18.268;2023-07-22T12:06:06;5.67;;;2.40;;
80675;SDS011;70041;46.088;18.268;2023-07-22T12:08:32;5.85;;;2.35;;
80675;SDS011;70041;46.088;18.268;2023-07-22T12:10:58;5.60;;;2.23;;
80675;SDS011;70041;46.088;18.268;2023-07-22T12:13:24;7.00;;;2.70;;
80675;SDS011;70041;46.088;18.268;2023-07-22T12:16:02;6.67;;;2.53;;
80675;SDS011;70041;46.088;18.268;2023-07-22T12:18:45;5.93;;;2.17;;
80675;SDS011;70041;46.088;18.268;2023-07-22T12:21:12;5.95;;;2.58;;
80675;SDS011;70041;46.088;18.268;2023-07-22T12:23:38;7.40;;;2.50;;
80675;SDS011;70041;46.088;18.268;2023-07-22T12:26:04;6.05;;;2.60;;
80675;SDS011;70041;46.088;18.268;2023-07-22T12:28:31;6.10;;;2.70;;
80675;SDS011;70041;46.088;18.268;2023-07-22T12:30:56;5.32;;;2.47;;
80675;SDS011;70041;46.088;18.268;2023-07-22T12:33:23;6.75;;;2.72;;
80675;SDS011;70041;46.088;18.268;2023-07-22T12:35:49;5.70;;;2.40;;
80675;SDS011;70041;46.088;18.268;2023-07-22T12:38:15;6.35;;;2.53;;
80675;SDS011;70041;46.088;18.268;2023-07-22T12:40:40;7.57;;;2.63;;
80675;SDS011;70041;46.088;18.268;2023-07-22T12:43:06;6.78;;;2.80;;
80675;SDS011;70041;46.088;18.268;2023-07-22T12:45:31;6.20;;;2.60;;
80675;SDS011;70041;46.088;18.268;2023-07-22T12:47:57;7.70;;;2.80;;
80675;SDS011;70041;46.088;18.268;2023-07-22T12:50:22;7.43;;;2.60;;
80675;SDS011;70041;46.088;18.268;2023-07-22T12:52:47;5.70;;;2.75;;
80675;SDS011;70041;46.088;18.268;2023-07-22T12:55:13;6.20;;;2.90;;
80675;SDS011;70041;46.088;18.268;2023-07-22T12:57:38;6.63;;;2.87;;
80675;SDS011;70041;46.088;18.268;2023-07-22T13:00:04;6.10;;;2.57;;
80675;SDS011;70041;46.088;18.268;2023-07-22T13:02:35;6.95;;;2.75;;
80675;SDS011;70041;46.088;18.268;2023-07-22T13:05:01;8.20;;;2.80;;
80675;SDS011;70041;46.088;18.268;2023-07-22T13:07:27;7.20;;;2.90;;
80675;SDS011;70041;46.088;18.268;2023-07-22T13:09:52;6.53;;;2.80;;
80675;SDS011;70041;46.088;18.268;2023-07-22T13:12:21;8.10;;;2.90;;
80675;SDS011;70041;46.088;18.268;2023-07-22T13:14:47;5.07;;;2.33;;
80675;SDS011;70041;46.088;18.268;2023-07-22T13:17:12;6.17;;;2.77;;
80675;SDS011;70041;46.088;18.268;2023-07-22T13:19:37;6.87;;;2.70;;
80675;SDS011;70041;46.088;18.268;2023-07-22T13:22:03;7.00;;;2.80;;
80675;SDS011;70041;46.088;18.268;2023-07-22T13:24:29;6.27;;;2.70;;
80675;SDS011;70041;46.088;18.268;2023-07-22T13:26:54;6.28;;;2.97;;
80675;SDS011;70041;46.088;18.268;2023-07-22T13:29:20;6.43;;;2.87;;
80675;SDS011;70041;46.088;18.268;2023-07-22T13:31:45;6.45;;;2.80;;
80675;SDS011;70041;46.088;18.268;2023-07-22T13:34:11;5.83;;;2.83;;
80675;SDS011;70041;46.088;18.268;2023-07-22T13:36:37;6.13;;;2.73;;
80675;SDS011;70041;46.088;18.268;2023-07-22T13:39:02;6.25;;;3.03;;
80675;SDS011;70041;46.088;18.268;2023-07-22T13:41:27;5.83;;;3.03;;
80675;SDS011;70041;46.088;18.268;2023-07-22T13:43:53;6.70;;;2.80;;
80675;SDS011;70041;46.088;18.268;2023-07-22T13:46:19;6.50;;;2.93;;
80675;SDS011;70041;46.088;18.268;2023-07-22T13:48:44;6.75;;;2.83;;
80675;SDS011;70041;46.088;18.268;2023-07-22T13:51:10;6.63;;;3.17;;
80675;SDS011;70041;46.088;18.268;2023-07-22T13:53:35;6.93;;;3.03;;
80675;SDS011;70041;46.088;18.268;2023-07-22T13:56:01;7.37;;;3.20;;
80675;SDS011;70041;46.088;18.268;2023-07-22T13:58:26;7.13;;;2.83;;
80675;SDS011;70041;46.088;18.268;2023-07-22T14:00:52;7.43;;;3.15;;
80675;SDS011;70041;46.088;18.268;2023-07-22T14:03:17;5.80;;;2.97;;
80675;SDS011;70041;46.088;18.268;2023-07-22T14:05:43;6.80;;;3.10;;
80675;SDS011;70041;46.088;18.268;2023-07-22T14:08:08;6.47;;;2.88;;
80675;SDS011;70041;46.088;18.268;2023-07-22T14:10:34;6.43;;;3.17;;
80675;SDS011;70041;46.088;18.268;2023-07-22T14:13:00;7.00;;;3.00;;
80675;SDS011;70041;46.088;18.268;2023-07-22T14:15:25;7.20;;;3.03;;
80675;SDS011;70041;46.088;18.268;2023-07-22T14:17:50;8.07;;;3.60;;
80675;SDS011;70041;46.088;18.268;2023-07-22T14:20:16;6.63;;;3.13;;
80675;SDS011;70041;46.088;18.268;2023-07-22T14:22:41;8.17;;;3.00;;
80675;SDS011;70041;46.088;18.268;2023-07-22T14:25:08;6.63;;;3.27;;
80675;SDS011;70041;46.088;18.268;2023-07-22T14:27:34;7.00;;;2.90;;
80675;SDS011;70041;46.088;18.268;2023-07-22T14:30:00;7.13;;;3.33;;
80675;SDS011;70041;46.088;18.268;2023-07-22T14:32:30;7.22;;;3.00;;
80675;SDS011;70041;46.088;18.268;2023-07-22T14:34:56;6.22;;;3.00;;